createdAt,value
2023-04-19T00:00:42.189Z,93810.35
2023-04-19T00:03:10.924Z,93797.65
2023-04-19T00:05:39.472Z,93791.23
2023-04-19T00:08:07.808Z,93792.91
2023-04-19T00:10:36.270Z,93794.80
2023-04-19T00:13:04.454Z,93792.05
2023-04-19T00:15:32.501Z,93791.17
2023-04-19T00:18:00.651Z,93805.05
2023-04-19T00:20:29.053Z,93817.81
2023-04-19T00:22:59.252Z,93830.55
2023-04-19T00:25:28.523Z,93842.31
2023-04-19T00:27:56.601Z,93849.27
2023-04-19T00:30:24.613Z,93854.76
2023-04-19T00:32:53.177Z,93864.83
2023-04-19T00:35:21.346Z,93872.61
2023-04-19T00:37:49.385Z,93873.45
2023-04-19T00:40:17.346Z,93888.36
2023-04-19T00:42:45.456Z,93892.20
2023-04-19T00:45:13.512Z,93893.29
2023-04-19T00:47:41.904Z,93897.95
2023-04-19T00:50:10.905Z,93903.70
2023-04-19T00:52:39.008Z,93912.77
2023-04-19T00:55:07.389Z,93916.70
2023-04-19T00:57:37.253Z,93917.90
2023-04-19T01:00:07.766Z,93920.61
2023-04-19T01:02:36.556Z,93926.83
2023-04-19T01:05:05.390Z,93936.66
2023-04-19T01:07:35.156Z,93953.11
2023-04-19T01:10:03.684Z,93969.10
2023-04-19T01:12:31.863Z,93976.23
2023-04-19T01:14:59.853Z,93989.31
2023-04-19T01:17:27.970Z,94009.35
2023-04-19T01:20:00.794Z,94019.47
2023-04-19T01:22:30.341Z,94019.85
2023-04-19T01:24:58.796Z,94030.50
2023-04-19T01:27:26.875Z,94038.38
2023-04-19T01:29:54.926Z,94043.15
2023-04-19T01:32:23.002Z,94056.44
2023-04-19T01:34:51.823Z,94082.89
2023-04-19T01:37:19.889Z,94092.83
2023-04-19T01:39:47.811Z,94102.04
2023-04-19T01:42:15.804Z,94106.63
2023-04-19T01:44:43.874Z,94117.73
2023-04-19T01:47:11.981Z,94140.25
2023-04-19T01:49:41.524Z,94151.33
2023-04-19T01:52:09.945Z,94142.41
2023-04-19T01:54:38.125Z,94148.43
2023-04-19T01:57:06.097Z,94164.70
2023-04-19T01:59:34.462Z,94181.33
2023-04-19T02:02:08.021Z,94196.73
2023-04-19T02:04:36.245Z,94210.93
2023-04-19T02:07:07.518Z,94221.30
2023-04-19T02:09:36.968Z,94217.88
2023-04-19T02:12:06.119Z,94209.83
2023-04-19T02:14:34.343Z,94208.05
2023-04-19T02:17:02.876Z,94212.07
2023-04-19T02:19:31.682Z,94210.45
2023-04-19T02:22:00.365Z,94211.98
2023-04-19T02:24:28.529Z,94219.58
2023-04-19T02:26:56.826Z,94232.11
2023-04-19T02:29:24.771Z,94246.90
2023-04-19T02:31:52.806Z,94249.52
2023-04-19T02:36:59.948Z,93919.45
2023-04-19T02:39:29.795Z,94222.84
2023-04-19T02:41:58.021Z,94255.73
2023-04-19T02:44:27.922Z,94276.09
2023-04-19T02:46:57.721Z,94284.79
2023-04-19T02:49:25.857Z,94288.66
2023-04-19T02:51:53.813Z,94303.02
2023-04-19T02:54:22.275Z,94317.22
2023-04-19T02:56:50.314Z,94330.31
2023-04-19T02:59:18.621Z,94334.73
2023-04-19T03:01:47.114Z,94333.42
2023-04-19T03:04:15.827Z,94330.83
2023-04-19T03:06:44.885Z,94328.11
2023-04-19T03:09:13.750Z,94323.64
2023-04-19T03:11:41.800Z,94323.83
2023-04-19T03:14:09.885Z,94319.59
2023-04-19T03:16:39.277Z,94320.95
2023-04-19T03:19:07.771Z,94311.88
2023-04-19T03:21:40.329Z,94313.95
2023-04-19T03:24:08.316Z,94311.68
2023-04-19T03:26:37.212Z,94312.09
2023-04-19T03:29:05.616Z,94306.83
2023-04-19T03:31:40.968Z,94292.83
2023-04-19T03:34:10.392Z,94287.15
2023-04-19T03:36:41.232Z,94280.77
2023-04-19T03:39:09.192Z,94264.84
2023-04-19T03:43:55.656Z,93931.77
2023-04-19T03:46:25.737Z,94255.36
2023-04-19T03:48:54.083Z,94276.52
2023-04-19T03:51:22.495Z,94274.61
2023-04-19T03:53:50.525Z,94271.11
2023-04-19T03:56:19.716Z,94269.02
2023-04-19T03:58:51.255Z,94261.86
2023-04-19T04:01:20.069Z,94256.64
2023-04-19T04:03:48.727Z,94249.09
2023-04-19T04:06:17.234Z,94249.10
2023-04-19T04:08:46.377Z,94237.07
2023-04-19T04:11:14.721Z,94227.45
2023-04-19T04:13:43.577Z,94221.73
2023-04-19T04:16:14.726Z,94221.05
2023-04-19T04:18:42.862Z,94209.23
2023-04-19T04:21:12.421Z,94175.17
2023-04-19T04:23:42.313Z,94150.48
2023-04-19T04:26:14.172Z,94142.72
2023-04-19T04:29:01.996Z,94124.16
2023-04-19T04:31:31.863Z,94123.16
2023-04-19T04:34:00.194Z,94131.98
2023-04-19T04:36:29.860Z,94137.58
2023-04-19T04:39:02.081Z,94150.25
2023-04-19T04:41:31.669Z,94136.52
2023-04-19T04:44:12.043Z,94114.52
2023-04-19T04:46:41.620Z,94109.25
2023-04-19T04:49:10.497Z,94123.27
2023-04-19T04:51:42.102Z,94125.54
2023-04-19T04:54:10.781Z,94110.10
2023-04-19T04:56:39.710Z,94109.80
2023-04-19T05:01:51.790Z,93891.09
2023-04-19T05:04:20.253Z,94219.20
2023-04-19T05:06:49.135Z,94216.05
2023-04-19T05:09:21.890Z,94256.95
2023-04-19T05:11:50.397Z,94255.99
2023-04-19T05:14:18.463Z,94242.58
2023-04-19T05:16:46.717Z,94253.33
2023-04-19T05:19:14.950Z,94243.62
2023-04-19T05:21:48.347Z,94216.42
2023-04-19T05:24:17.937Z,94268.50
2023-04-19T05:26:47.655Z,93994.61
2023-04-19T05:29:17.305Z,93795.09
2023-04-19T05:31:48.278Z,93694.80
2023-04-19T05:34:25.335Z,93549.98
2023-04-19T05:36:54.386Z,93090.83
2023-04-19T05:39:22.380Z,93447.96
2023-04-19T05:41:50.357Z,93625.83
2023-04-19T05:44:18.330Z,93861.56
2023-04-19T05:52:03.324Z,94407.58
2023-04-19T05:54:45.150Z,94501.53
2023-04-19T05:57:13.328Z,94583.77
2023-04-19T05:59:41.396Z,94710.58
2023-04-19T06:02:10.029Z,94886.50
2023-04-19T06:04:38.251Z,94737.25
2023-04-19T06:07:13.473Z,94715.45
2023-04-19T06:09:49.985Z,94710.44
2023-04-19T06:12:17.849Z,94803.52
2023-04-19T06:14:46.255Z,94890.80
2023-04-19T06:17:16.697Z,94885.89
2023-04-19T06:19:44.598Z,95105.07
2023-04-19T06:22:12.614Z,95067.49
2023-04-19T06:24:41.031Z,95146.30
2023-04-19T06:27:09.289Z,95123.98
2023-04-19T06:29:37.187Z,95091.36
2023-04-19T06:32:05.217Z,95135.71
2023-04-19T06:34:33.379Z,95144.56
2023-04-19T06:37:01.319Z,95211.61
2023-04-19T06:39:29.486Z,95391.23
2023-04-19T06:41:57.486Z,95531.42
2023-04-19T06:44:25.761Z,95748.15
2023-04-19T06:46:53.728Z,95892.83
2023-04-19T06:49:22.736Z,95954.38
2023-04-19T06:51:50.894Z,96067.66
2023-04-19T06:54:19.209Z,96198.98
2023-04-19T06:56:48.192Z,96252.30
2023-04-19T06:59:20.045Z,96383.09
2023-04-19T07:01:48.823Z,96645.43
2023-04-19T07:04:17.509Z,96708.56
2023-04-19T07:06:49.014Z,96787.67
2023-04-19T07:09:17.157Z,96814.41
2023-04-19T07:11:45.261Z,96935.92
2023-04-19T07:14:13.192Z,96890.95
2023-04-19T07:16:42.970Z,96517.94
2023-04-19T07:19:10.874Z,95723.84
2023-04-19T07:21:39.693Z,94860.76
2023-04-19T07:24:07.778Z,94656.55
2023-04-19T07:26:36.038Z,94977.55
2023-04-19T07:29:04.039Z,94958.43
2023-04-19T07:31:32.216Z,94952.52
2023-04-19T07:34:00.264Z,94822.66
2023-04-19T07:36:28.413Z,94674.98
2023-04-19T07:38:56.584Z,94519.67
2023-04-19T07:41:24.564Z,94406.92
2023-04-19T07:43:52.628Z,94428.42
2023-04-19T07:46:21.066Z,94362.30
2023-04-19T07:48:49.113Z,94307.45
2023-04-19T07:51:17.677Z,94245.62
2023-04-19T07:53:46.796Z,90963.81
2023-04-19T07:56:15.770Z,90973.92
2023-04-19T07:58:46.647Z,91063.64
2023-04-19T08:01:17.689Z,91151.47
2023-04-19T08:03:47.382Z,91100.86
2023-04-19T08:06:15.604Z,91045.90
2023-04-19T08:08:43.617Z,90994.91
2023-04-19T08:11:11.726Z,90964.23
2023-04-19T08:13:40.475Z,91107.00
2023-04-19T08:18:39.508Z,91113.59
2023-04-19T08:21:07.668Z,91156.46
2023-04-19T08:23:48.015Z,91228.20
2023-04-19T08:26:16.676Z,91411.23
2023-04-19T08:28:44.675Z,91633.30
2023-04-19T08:31:12.734Z,91896.48
2023-04-19T08:33:40.735Z,92011.20
2023-04-19T08:36:09.369Z,92218.83
2023-04-19T08:38:39.065Z,92445.06
2023-04-19T08:41:07.188Z,92694.98
2023-04-19T08:43:36.032Z,92719.58
2023-04-19T08:46:04.816Z,92894.50
2023-04-19T08:48:34.668Z,93191.31
2023-04-19T08:51:05.591Z,93486.52
2023-04-19T08:53:35.942Z,93790.41
2023-04-19T08:56:15.190Z,93953.16
2023-04-19T08:59:11.048Z,94180.55
2023-04-19T09:01:42.907Z,94448.63
2023-04-19T09:04:34.531Z,94619.09
2023-04-19T09:07:00.661Z,94694.88
2023-04-19T09:12:01.532Z,94715.79
2023-04-19T09:14:30.016Z,94961.85
2023-04-19T09:17:17.639Z,95351.63
2023-04-19T09:19:49.507Z,95742.02
2023-04-19T09:22:18.567Z,96008.64
2023-04-19T09:25:24.016Z,96248.23
2023-04-19T09:27:36.455Z,96643.55
2023-04-19T09:30:06.744Z,96779.92
2023-04-19T09:32:49.225Z,96719.39
2023-04-19T09:35:17.496Z,96795.97
2023-04-19T09:38:06.032Z,96919.11
2023-04-19T09:40:35.314Z,96920.77
2023-04-19T09:45:44.950Z,97504.43
2023-04-19T09:48:13.474Z,98003.40
2023-04-19T09:51:05.697Z,98119.91
2023-04-19T09:53:35.002Z,98201.41
2023-04-19T09:56:05.435Z,93384.97
2023-04-19T09:58:49.026Z,94926.85
2023-04-19T10:01:21.112Z,95929.41
2023-04-19T10:03:50.127Z,96062.95
2023-04-19T10:08:50.262Z,96096.66
2023-04-19T10:11:23.094Z,96104.48
2023-04-19T10:13:54.041Z,96529.73
2023-04-19T10:16:22.213Z,96106.36
2023-04-19T10:18:50.633Z,94640.66
2023-04-19T10:21:18.803Z,94712.82
2023-04-19T10:23:46.832Z,95294.33
2023-04-19T10:26:14.763Z,95167.46
2023-04-19T10:28:43.180Z,95057.02
2023-04-19T10:31:14.054Z,94859.71
2023-04-19T10:33:42.436Z,94681.59
2023-04-19T10:36:14.726Z,94608.50
2023-04-19T10:38:49.516Z,94639.05
2023-04-19T10:41:21.765Z,94608.59
2023-04-19T10:43:55.504Z,94565.11
2023-04-19T10:46:29.029Z,94631.50
2023-04-19T10:48:58.108Z,94662.11
2023-04-19T10:51:56.809Z,94642.05
2023-04-19T10:54:32.632Z,94631.42
2023-04-19T10:57:07.317Z,94624.25
2023-04-19T10:59:38.672Z,94583.39
2023-04-19T11:02:28.518Z,94661.04
2023-04-19T11:04:56.531Z,94672.89
2023-04-19T11:07:24.689Z,94646.49
2023-04-19T11:09:53.096Z,94702.59
2023-04-19T11:12:21.629Z,94713.30
2023-04-19T11:14:59.717Z,94629.98
2023-04-19T11:17:32.395Z,94592.50
2023-04-19T11:20:11.305Z,94673.48
2023-04-19T11:22:41.521Z,94659.53
2023-04-19T11:25:11.127Z,94632.95
2023-04-19T11:27:40.550Z,94588.93
2023-04-19T11:30:14.793Z,94613.54
2023-04-19T11:32:47.227Z,94591.25
2023-04-19T11:35:18.071Z,94569.94
2023-04-19T11:37:46.498Z,94503.42
2023-04-19T11:40:15.322Z,94451.54
2023-04-19T11:42:43.856Z,94386.05
2023-04-19T11:45:25.932Z,94353.11
2023-04-19T11:47:57.173Z,94349.32
2023-04-19T11:50:43.659Z,94367.35
2023-04-19T11:53:14.576Z,94359.48
2023-04-19T11:55:46.199Z,94378.64
2023-04-19T11:58:48.485Z,94369.36
2023-04-19T12:01:20.980Z,94315.55
2023-04-19T12:03:50.517Z,94322.34
2023-04-19T12:06:22.567Z,94323.08
2023-04-19T12:08:51.537Z,94292.82
2023-04-19T12:11:22.078Z,94231.95
2023-04-19T12:14:09.611Z,94213.42
2023-04-19T12:16:37.742Z,94217.70
2023-04-19T12:19:18.008Z,94233.48
2023-04-19T12:21:46.855Z,94228.48
2023-04-19T12:24:15.840Z,94261.58
2023-04-19T12:26:57.035Z,94250.59
2023-04-19T12:29:25.415Z,94248.98
2023-04-19T12:31:53.531Z,94251.44
2023-04-19T12:34:21.520Z,94143.75
2023-04-19T12:36:49.373Z,94180.04
2023-04-19T12:39:17.738Z,94243.45
2023-04-19T12:41:48.281Z,94267.96
2023-04-19T12:44:16.455Z,94266.20
2023-04-19T12:46:44.350Z,94244.14
2023-04-19T12:49:12.378Z,94120.30
2023-04-19T12:51:42.593Z,94134.98
2023-04-19T12:54:10.892Z,94166.37
2023-04-19T12:56:39.046Z,94154.79
2023-04-19T12:59:07.083Z,94174.29
2023-04-19T13:01:35.129Z,94276.25
2023-04-19T13:04:03.377Z,94301.08
2023-04-19T13:06:31.481Z,94312.23
2023-04-19T13:09:01.024Z,94198.14
2023-04-19T13:11:29.860Z,94242.85
2023-04-19T13:13:57.728Z,94309.80
2023-04-19T13:16:26.001Z,94287.77
2023-04-19T13:18:55.133Z,94204.12
2023-04-19T13:21:24.079Z,94190.86
2023-04-19T13:23:53.184Z,94230.64
2023-04-19T13:26:21.246Z,94295.63
2023-04-19T13:28:49.222Z,94370.28
2023-04-19T13:31:17.293Z,94372.59
2023-04-19T13:33:45.423Z,94267.53
2023-04-19T13:36:13.463Z,94289.30
2023-04-19T13:38:41.615Z,94357.50
2023-04-19T13:41:09.697Z,94269.58
2023-04-19T13:43:37.961Z,94215.70
2023-04-19T13:46:06.727Z,94258.94
2023-04-19T13:48:34.806Z,94377.46
2023-04-19T13:51:03.030Z,94451.20
2023-04-19T13:53:31.145Z,94444.25
2023-04-19T13:55:59.243Z,94278.86
2023-04-19T13:58:27.149Z,94270.05
2023-04-19T14:00:55.406Z,94297.91
2023-04-19T14:03:25.836Z,94291.54
2023-04-19T14:05:53.922Z,94327.96
2023-04-19T14:08:22.136Z,94339.26
2023-04-19T14:10:50.863Z,94394.63
2023-04-19T14:13:18.908Z,94445.46
2023-04-19T14:15:46.973Z,94440.28
2023-04-19T14:18:15.086Z,94349.29
2023-04-19T14:20:43.074Z,94317.36
2023-04-19T14:23:11.396Z,94338.90
2023-04-19T14:25:39.510Z,94341.08
2023-04-19T14:28:07.793Z,94396.10
2023-04-19T14:30:36.420Z,94423.56
2023-04-19T14:33:04.763Z,94427.09
2023-04-19T14:35:33.830Z,89205.08
2023-04-19T14:38:01.729Z,89023.34
2023-04-19T14:40:29.737Z,89693.03
2023-04-19T14:42:57.794Z,89925.87
2023-04-19T14:45:26.502Z,89899.65
2023-04-19T14:47:54.652Z,90052.89
2023-04-19T14:50:22.890Z,90099.42
2023-04-19T14:52:53.978Z,90155.77
2023-04-19T14:55:29.080Z,90164.23
2023-04-19T14:57:59.106Z,90121.52
2023-04-19T15:00:27.401Z,90150.71
2023-04-19T15:02:56.387Z,90184.64
2023-04-19T15:05:27.364Z,90149.87
2023-04-19T15:07:55.560Z,90139.05
2023-04-19T15:10:23.527Z,90198.69
2023-04-19T15:12:51.801Z,90155.13
2023-04-19T15:15:21.978Z,90100.52
2023-04-19T15:17:51.419Z,89977.68
2023-04-19T15:20:19.437Z,89870.59
2023-04-19T15:22:47.343Z,89779.09
2023-04-19T15:25:15.197Z,89751.94
2023-04-19T15:27:43.463Z,89845.41
2023-04-19T15:30:12.401Z,89913.23
2023-04-19T15:32:41.812Z,89939.53
2023-04-19T15:35:11.820Z,89994.77
2023-04-19T15:37:41.201Z,90031.73
2023-04-19T15:40:09.918Z,90077.55
2023-04-19T15:42:38.078Z,89956.23
2023-04-19T15:45:06.928Z,89818.80
2023-04-19T15:47:35.010Z,89701.85
2023-04-19T15:50:04.704Z,89583.50
2023-04-19T15:52:32.889Z,89683.00
2023-04-19T15:55:00.954Z,89997.60
2023-04-19T15:57:29.068Z,90159.36
2023-04-19T15:59:56.983Z,90206.36
2023-04-19T16:02:25.086Z,90315.35
2023-04-19T16:04:53.475Z,-1.00
2023-04-19T16:07:21.584Z,-1.00
2023-04-19T16:09:49.521Z,-1.00
2023-04-19T16:12:17.525Z,-1.00
2023-04-19T16:14:45.905Z,-1.00
2023-04-19T16:17:13.987Z,-1.00
2023-04-19T16:19:41.876Z,-1.00
2023-04-19T16:22:09.810Z,-1.00
2023-04-19T16:24:38.183Z,-1.00
2023-04-19T16:27:06.083Z,-1.00
2023-04-19T16:29:34.995Z,-1.00
2023-04-19T16:32:03.427Z,-1.00
2023-04-19T16:34:32.193Z,-1.00
2023-04-19T16:37:00.417Z,-1.00
2023-04-19T16:39:28.350Z,-1.00
2023-04-19T16:41:56.341Z,-1.00
2023-04-19T16:44:24.377Z,-1.00
2023-04-19T16:46:52.463Z,-1.00
2023-04-19T16:49:22.131Z,-1.00
2023-04-19T16:51:50.049Z,-1.00
2023-04-19T16:54:17.963Z,-1.00
2023-04-19T16:56:45.875Z,-1.00
2023-04-19T16:59:14.012Z,-1.00
2023-04-19T17:01:42.224Z,-1.00
2023-04-19T17:04:10.606Z,-1.00
2023-04-19T17:06:39.146Z,-1.00
2023-04-19T17:09:07.828Z,-1.00
2023-04-19T17:11:36.194Z,-1.00
2023-04-19T17:14:04.712Z,-1.00
2023-04-19T17:16:32.705Z,-1.00
2023-04-19T17:19:00.622Z,-1.00
2023-04-19T17:21:28.846Z,-1.00
2023-04-19T17:23:56.853Z,-1.00
2023-04-19T17:26:25.119Z,-1.00
2023-04-19T17:28:52.971Z,-1.00
2023-04-19T17:31:21.028Z,-1.00
2023-04-19T17:33:49.451Z,-1.00
2023-04-19T17:36:18.699Z,-1.00
2023-04-19T17:38:46.860Z,-1.00
2023-04-19T17:41:17.756Z,-1.00
2023-04-19T17:43:45.998Z,-1.00
2023-04-19T17:46:14.313Z,-1.00
2023-04-19T17:48:42.457Z,-1.00
2023-04-19T17:51:10.465Z,-1.00
2023-04-19T17:53:38.496Z,-1.00
2023-04-19T17:56:06.451Z,-1.00
2023-04-19T17:58:36.492Z,-1.00
2023-04-19T18:01:06.744Z,-1.00
2023-04-19T18:03:35.203Z,-1.00
2023-04-19T18:08:46.169Z,18215.81
2023-04-19T18:11:15.146Z,-1.00
2023-04-19T18:13:43.373Z,-1.00
2023-04-19T18:16:11.889Z,-1.00
2023-04-19T18:18:39.851Z,-1.00
2023-04-19T18:21:09.397Z,-1.00
2023-04-19T18:23:37.469Z,-1.00
2023-04-19T18:26:05.607Z,-1.00
2023-04-19T18:28:35.798Z,-1.00
2023-04-19T18:31:05.265Z,-1.00
2023-04-19T18:33:34.330Z,-1.00
2023-04-19T18:36:02.461Z,-1.00
2023-04-19T18:38:31.248Z,-1.00
2023-04-19T18:40:59.346Z,-1.00
2023-04-19T18:43:28.288Z,-1.00
2023-04-19T18:45:56.741Z,-1.00
2023-04-19T18:48:28.167Z,-1.00
2023-04-19T18:53:36.699Z,89329.12
2023-04-19T18:56:04.958Z,89730.58
2023-04-19T18:58:33.960Z,90204.88
2023-04-19T19:01:01.847Z,90575.34
2023-04-19T19:03:57.944Z,90832.90
2023-04-19T19:08:59.951Z,91467.45
2023-04-19T19:11:51.795Z,89951.64
2023-04-19T19:14:16.098Z,90127.36
2023-04-19T19:16:51.184Z,90367.82
2023-04-19T19:19:22.438Z,90579.59
2023-04-19T19:21:52.174Z,90538.35
2023-04-19T19:24:20.215Z,72469.11
2023-04-19T19:26:48.419Z,-1.00
2023-04-19T19:29:16.788Z,-1.00
2023-04-19T19:31:45.055Z,-1.00
2023-04-19T19:34:27.091Z,-1.00
2023-04-19T19:36:58.102Z,-1.00
2023-04-19T19:39:26.197Z,-1.00
2023-04-19T19:42:04.453Z,-1.00
2023-04-19T19:44:33.730Z,-1.00
2023-04-19T19:47:01.808Z,-1.00
2023-04-19T19:49:40.614Z,-1.00
2023-04-19T19:52:13.568Z,-1.00
2023-04-19T19:54:41.686Z,-1.00
2023-04-19T19:58:06.911Z,-1.00
2023-04-19T20:00:13.048Z,-1.00
2023-04-19T20:05:18.527Z,-1.00
2023-04-19T20:08:00.932Z,-1.00
2023-04-19T20:10:30.904Z,-1.00
2023-04-19T20:12:58.926Z,-1.00
2023-04-19T20:15:27.318Z,-1.00
2023-04-19T20:17:55.740Z,-1.00
2023-04-19T20:20:23.852Z,-1.00
2023-04-19T20:22:51.907Z,-1.00
2023-04-19T20:25:19.928Z,-1.00
2023-04-19T20:27:47.859Z,-1.00
2023-04-19T20:30:15.819Z,-1.00
2023-04-19T20:32:44.230Z,-1.00
2023-04-19T20:35:12.573Z,-1.00
2023-04-19T20:37:40.901Z,-1.00
2023-04-19T20:40:14.607Z,-1.00
2023-04-19T20:42:43.618Z,-1.00
2023-04-19T20:45:11.733Z,-1.00
2023-04-19T20:47:40.312Z,-1.00
2023-04-19T20:50:08.933Z,-1.00
2023-04-19T20:52:37.306Z,-1.00
2023-04-19T20:55:05.923Z,-1.00
2023-04-19T20:57:33.985Z,-1.00
2023-04-19T21:00:02.154Z,-1.00
2023-04-19T21:02:30.932Z,-1.00
2023-04-19T21:04:59.182Z,-1.00
2023-04-19T21:07:27.243Z,-1.00
2023-04-19T21:09:55.474Z,-1.00
2023-04-19T21:12:23.517Z,-1.00
2023-04-19T21:14:52.848Z,-1.00
2023-04-19T21:17:20.929Z,-1.00
2023-04-19T21:19:48.985Z,-1.00
2023-04-19T21:22:17.048Z,-1.00
2023-04-19T21:24:45.009Z,-1.00
2023-04-19T21:27:13.021Z,-1.00
2023-04-19T21:29:41.129Z,-1.00
2023-04-19T21:32:09.085Z,-1.00
2023-04-19T21:34:38.384Z,-1.00
2023-04-19T21:37:06.666Z,-1.00
2023-04-19T21:39:34.922Z,-1.00
2023-04-19T21:42:02.992Z,-1.00
2023-04-19T21:44:31.116Z,-1.00
2023-04-19T21:46:59.396Z,-1.00
2023-04-19T21:49:27.550Z,-1.00
2023-04-19T21:51:57.003Z,-1.00
2023-04-19T21:54:33.363Z,-1.00
2023-04-19T21:57:02.901Z,-1.00
2023-04-19T21:59:34.722Z,-1.00
2023-04-19T22:02:02.973Z,-1.00
2023-04-19T22:04:31.939Z,-1.00
2023-04-19T22:07:03.027Z,-1.00
2023-04-19T22:09:31.351Z,-1.00
2023-04-19T22:12:00.275Z,-1.00
2023-04-19T22:14:28.527Z,-1.00
2023-04-19T22:16:57.371Z,-1.00
2023-04-19T22:19:25.270Z,-1.00
2023-04-19T22:21:53.682Z,-1.00
2023-04-19T22:24:22.623Z,-1.00
2023-04-19T22:26:51.271Z,-1.00
2023-04-19T22:29:19.972Z,-1.00
2023-04-19T22:31:48.089Z,-1.00
2023-04-19T22:34:16.531Z,-1.00
2023-04-19T22:36:44.570Z,-1.00
2023-04-19T22:39:13.145Z,-1.00
2023-04-19T22:41:41.712Z,-1.00
2023-04-19T22:44:09.677Z,-1.00
2023-04-19T22:46:37.737Z,-1.00
2023-04-19T22:49:06.217Z,-1.00
2023-04-19T22:51:34.852Z,-1.00
2023-04-19T22:54:03.283Z,-1.00
2023-04-19T22:56:31.606Z,-1.00
2023-04-19T22:58:59.838Z,-1.00
2023-04-19T23:01:27.819Z,-1.00
2023-04-19T23:03:55.850Z,-1.00
2023-04-19T23:06:24.581Z,-1.00
2023-04-19T23:08:52.750Z,-1.00
2023-04-19T23:11:25.954Z,-1.00
2023-04-19T23:13:54.186Z,-1.00
2023-04-19T23:16:25.647Z,-1.00
2023-04-19T23:18:54.480Z,-1.00
2023-04-19T23:21:22.438Z,-1.00
2023-04-19T23:23:50.717Z,-1.00
2023-04-19T23:26:18.720Z,-1.00
2023-04-19T23:28:46.657Z,-1.00
2023-04-19T23:31:14.636Z,-1.00
2023-04-19T23:33:42.683Z,-1.00
2023-04-19T23:36:10.770Z,-1.00
2023-04-19T23:38:39.151Z,-1.00
2023-04-19T23:41:11.207Z,-1.00
2023-04-19T23:43:39.190Z,-1.00
2023-04-19T23:46:07.374Z,-1.00
2023-04-19T23:48:35.784Z,-1.00
2023-04-19T23:51:03.951Z,-1.00
2023-04-19T23:53:32.174Z,-1.00
2023-04-19T23:56:00.711Z,-1.00
2023-04-19T23:58:28.946Z,-1.00
